createdAt,value
2023-04-22T00:01:28.892Z,100912.16
2023-04-22T00:03:56.665Z,100904.97
2023-04-22T00:06:24.108Z,100903.13
2023-04-22T00:08:51.283Z,100893.38
2023-04-22T00:11:18.467Z,100901.31
2023-04-22T00:13:46.102Z,100896.06
2023-04-22T00:16:13.404Z,100888.00
2023-04-22T00:18:40.884Z,100883.75
2023-04-22T00:21:08.121Z,100894.38
2023-04-22T00:23:35.306Z,100888.16
2023-04-22T00:26:02.973Z,100883.63
2023-04-22T00:28:30.291Z,100883.75
2023-04-22T00:30:58.713Z,100876.56
2023-04-22T00:33:26.086Z,100873.00
2023-04-22T00:35:54.690Z,100880.22
2023-04-22T00:38:21.928Z,100877.66
2023-04-22T00:40:49.234Z,100875.09
2023-04-22T00:43:18.050Z,100867.91
2023-04-22T00:45:45.763Z,100864.25
2023-04-22T00:48:13.761Z,100875.00
2023-04-22T00:50:41.089Z,100870.56
2023-04-22T00:53:08.282Z,100871.56
2023-04-22T00:55:35.845Z,100869.03
2023-04-22T00:58:03.868Z,100863.91
2023-04-22T01:00:31.370Z,100861.09
2023-04-22T01:02:58.966Z,100863.78
2023-04-22T01:05:26.375Z,100854.88
2023-04-22T01:07:53.624Z,100851.34
2023-04-22T01:10:20.949Z,100853.19
2023-04-22T01:12:48.124Z,100858.53
2023-04-22T01:15:15.320Z,100848.91
2023-04-22T01:17:42.641Z,100841.84
2023-04-22T01:20:10.572Z,100840.72
2023-04-22T01:22:44.597Z,100848.06
2023-04-22T01:25:12.370Z,100843.66
2023-04-22T01:27:40.881Z,100844.53
2023-04-22T01:30:09.238Z,100836.59
2023-04-22T01:32:36.639Z,100832.91
2023-04-22T01:35:03.983Z,100834.06
2023-04-22T01:37:31.159Z,100829.66
2023-04-22T01:39:59.306Z,100830.38
2023-04-22T01:42:26.825Z,100840.13
2023-04-22T01:44:54.059Z,100836.75
2023-04-22T01:47:21.225Z,100827.97
2023-04-22T01:49:48.425Z,100826.00
2023-04-22T01:52:15.990Z,100825.03
2023-04-22T01:54:43.165Z,100823.19
2023-04-22T01:57:13.859Z,100819.75
2023-04-22T01:59:41.767Z,100816.81
2023-04-22T02:02:09.285Z,100817.97
2023-04-22T02:04:36.606Z,100809.75
2023-04-22T02:07:03.871Z,100812.59
2023-04-22T02:09:34.367Z,100813.28
2023-04-22T02:12:01.699Z,100807.94
2023-04-22T02:14:28.959Z,100814.16
2023-04-22T02:16:56.177Z,100806.25
2023-04-22T02:19:23.489Z,100805.75
2023-04-22T02:21:50.673Z,100804.81
2023-04-22T02:24:17.920Z,100797.59
2023-04-22T02:26:46.035Z,100803.91
2023-04-22T02:29:13.299Z,100797.00
2023-04-22T02:31:40.644Z,100802.38
2023-04-22T02:34:07.953Z,100793.47
2023-04-22T02:36:35.182Z,100796.28
2023-04-22T02:39:03.682Z,100799.81
2023-04-22T02:41:30.936Z,100796.28
2023-04-22T02:43:58.143Z,100796.16
2023-04-22T02:46:25.436Z,100787.22
2023-04-22T02:48:52.656Z,100797.25
2023-04-22T02:51:20.067Z,100782.00
2023-04-22T02:53:47.275Z,100786.38
2023-04-22T02:56:14.522Z,100790.06
2023-04-22T02:58:41.681Z,100786.78
2023-04-22T03:01:08.950Z,100782.13
2023-04-22T03:03:36.419Z,100782.00
2023-04-22T03:06:03.871Z,100782.13
2023-04-22T03:08:31.167Z,100787.50
2023-04-22T03:10:58.326Z,100786.78
2023-04-22T03:13:25.534Z,100777.50
2023-04-22T03:15:52.724Z,100774.22
2023-04-22T03:18:19.990Z,100784.22
2023-04-22T03:20:47.248Z,100782.38
2023-04-22T03:23:14.445Z,100784.34
2023-04-22T03:25:41.632Z,100785.19
2023-04-22T03:28:08.809Z,100782.66
2023-04-22T03:30:35.970Z,100776.31
2023-04-22T03:33:03.537Z,100771.06
2023-04-22T03:35:30.870Z,100772.88
2023-04-22T03:37:58.069Z,100773.75
2023-04-22T03:40:25.224Z,100772.88
2023-04-22T03:42:52.385Z,100780.81
2023-04-22T03:45:19.612Z,100788.03
2023-04-22T03:47:47.146Z,100780.22
2023-04-22T03:50:14.394Z,100782.03
2023-04-22T03:52:41.600Z,100782.91
2023-04-22T03:55:09.127Z,100776.69
2023-04-22T03:57:37.198Z,100770.47
2023-04-22T04:00:04.771Z,100774.88
2023-04-22T04:02:32.050Z,100778.41
2023-04-22T04:04:59.537Z,100776.69
2023-04-22T04:07:27.071Z,100783.75
2023-04-22T04:09:54.644Z,100780.22
2023-04-22T04:12:21.813Z,100781.09
2023-04-22T04:14:48.990Z,100775.81
2023-04-22T04:17:16.624Z,100780.34
2023-04-22T04:19:43.777Z,100778.66
2023-04-22T04:22:10.969Z,100778.06
2023-04-22T04:24:41.924Z,100772.31
2023-04-22T04:27:09.435Z,100772.56
2023-04-22T04:29:36.876Z,100771.56
2023-04-22T04:32:04.774Z,100781.44
2023-04-22T04:34:32.329Z,100767.78
2023-04-22T04:36:59.585Z,100772.44
2023-04-22T04:39:29.143Z,100779.88
2023-04-22T04:41:58.587Z,100777.91
2023-04-22T04:44:26.472Z,100774.38
2023-04-22T04:46:54.795Z,100775.13
2023-04-22T04:49:22.819Z,100773.41
2023-04-22T04:51:50.569Z,100776.94
2023-04-22T04:54:17.772Z,100772.03
2023-04-22T04:56:45.077Z,100773.88
2023-04-22T04:59:12.261Z,100771.19
2023-04-22T05:01:39.594Z,100765.84
2023-04-22T05:04:06.964Z,100769.50
2023-04-22T05:06:34.216Z,100765.84
2023-04-22T05:09:01.399Z,100767.41
2023-04-22T05:11:28.628Z,100773.03
2023-04-22T05:13:56.087Z,100771.94
2023-04-22T05:16:23.412Z,100764.72
2023-04-22T05:18:50.821Z,100773.38
2023-04-22T05:21:18.104Z,100767.75
2023-04-22T05:23:45.280Z,100772.13
2023-04-22T05:26:12.799Z,100771.38
2023-04-22T05:28:39.973Z,100777.50
2023-04-22T05:31:07.227Z,100776.75
2023-04-22T05:33:34.445Z,100783.25
2023-04-22T05:36:01.643Z,100777.63
2023-04-22T05:38:28.982Z,100776.91
2023-04-22T05:40:56.142Z,100777.88
2023-04-22T05:43:23.356Z,100785.94
2023-04-22T05:45:50.543Z,100782.38
2023-04-22T05:48:17.832Z,100790.22
2023-04-22T05:50:44.990Z,100784.78
2023-04-22T05:53:12.175Z,100780.69
2023-04-22T05:55:39.374Z,100789.47
2023-04-22T05:58:06.567Z,100787.38
2023-04-22T06:00:33.796Z,100791.63
2023-04-22T06:03:01.135Z,100798.75
2023-04-22T06:05:28.873Z,100795.69
2023-04-22T06:07:56.128Z,100794.56
2023-04-22T06:10:23.481Z,100792.50
2023-04-22T06:12:50.704Z,100787.97
2023-04-22T06:15:18.001Z,100779.78
2023-04-22T06:17:45.710Z,100783.84
2023-04-22T06:20:13.522Z,100795.50
2023-04-22T06:22:40.686Z,100790.66
2023-04-22T06:25:08.191Z,100790.66
2023-04-22T06:27:35.495Z,100794.19
2023-04-22T06:30:04.688Z,100792.09
2023-04-22T06:32:31.880Z,100791.13
2023-04-22T06:34:59.053Z,100790.88
2023-04-22T06:37:27.048Z,100787.94
2023-04-22T06:39:54.514Z,100784.78
2023-04-22T06:42:21.698Z,100785.13
2023-04-22T06:44:48.878Z,100779.47
2023-04-22T06:47:16.477Z,100779.94
2023-04-22T06:49:44.996Z,100783.38
2023-04-22T06:52:12.393Z,100776.63
2023-04-22T06:54:39.597Z,100781.63
2023-04-22T06:57:08.005Z,100786.41
2023-04-22T06:59:35.346Z,100782.00
2023-04-22T07:02:02.633Z,100780.03
2023-04-22T07:04:31.693Z,100781.72
2023-04-22T07:06:58.875Z,100771.00
2023-04-22T07:09:26.376Z,100783.31
2023-04-22T07:11:53.586Z,100778.94
2023-04-22T07:14:20.845Z,100768.22
2023-04-22T07:16:50.464Z,100768.28
2023-04-22T07:19:17.846Z,100762.88
2023-04-22T07:21:45.185Z,100773.28
2023-04-22T07:24:13.199Z,100768.59
2023-04-22T07:26:44.381Z,100777.53
2023-04-22T07:29:12.963Z,100771.75
2023-04-22T07:31:40.399Z,100771.72
2023-04-22T07:34:09.251Z,100764.59
2023-04-22T07:36:36.623Z,100766.03
2023-04-22T07:39:03.897Z,100768.97
2023-04-22T07:41:31.785Z,100762.53
2023-04-22T07:43:59.541Z,100758.94
2023-04-22T07:46:26.732Z,100765.84
2023-04-22T07:48:53.878Z,100751.13
2023-04-22T07:51:21.110Z,100757.09
2023-04-22T07:53:48.277Z,100752.88
2023-04-22T07:56:15.714Z,100751.19
2023-04-22T07:58:43.209Z,100751.41
2023-04-22T08:01:10.375Z,100743.16
2023-04-22T08:03:37.884Z,100745.19
2023-04-22T08:06:05.242Z,100736.34
2023-04-22T08:08:32.407Z,100752.50
2023-04-22T08:10:59.756Z,100742.56
2023-04-22T08:13:27.268Z,100738.56
2023-04-22T08:15:54.522Z,100739.41
2023-04-22T08:18:21.834Z,100738.69
2023-04-22T08:20:49.890Z,100734.47
2023-04-22T08:23:17.325Z,100729.72
2023-04-22T08:25:44.491Z,100737.50
2023-04-22T08:28:11.673Z,100732.88
2023-04-22T08:30:38.876Z,100733.03
2023-04-22T08:33:06.597Z,100731.34
2023-04-22T08:35:35.968Z,100733.19
2023-04-22T08:38:03.182Z,100729.81
2023-04-22T08:40:30.466Z,100727.25
2023-04-22T08:42:58.457Z,100738.81
2023-04-22T08:45:25.968Z,100733.97
2023-04-22T08:47:53.688Z,100730.06
2023-04-22T08:50:37.959Z,100729.09
2023-04-22T08:53:05.469Z,100728.09
2023-04-22T08:55:33.293Z,100721.50
2023-04-22T08:58:03.838Z,100715.00
2023-04-22T09:00:32.213Z,100716.31
2023-04-22T09:03:03.081Z,100718.56
2023-04-22T09:05:32.928Z,100711.19
2023-04-22T09:08:00.361Z,100713.63
2023-04-22T09:10:28.389Z,100710.25
2023-04-22T09:12:55.804Z,100706.69
2023-04-22T09:15:23.112Z,100703.03
2023-04-22T09:17:52.350Z,100702.03
2023-04-22T09:20:19.805Z,100707.81
2023-04-22T09:22:49.226Z,100701.72
2023-04-22T09:25:21.242Z,100701.97
2023-04-22T09:27:52.736Z,100699.28
2023-04-22T09:30:34.612Z,100692.94
2023-04-22T09:33:05.064Z,100690.41
2023-04-22T09:35:42.711Z,100691.09
2023-04-22T09:38:11.382Z,100687.56
2023-04-22T09:40:43.260Z,100691.97
2023-04-22T09:43:11.560Z,100683.19
2023-04-22T09:45:42.692Z,100673.31
2023-04-22T09:48:12.268Z,100681.34
2023-04-22T09:50:44.490Z,100667.94
2023-04-22T09:53:13.764Z,100665.25
2023-04-22T09:55:43.821Z,100666.25
2023-04-22T09:58:13.583Z,100647.31
2023-04-22T10:00:44.553Z,100650.84
2023-04-22T10:03:11.879Z,100648.31
2023-04-22T10:05:39.234Z,100643.78
2023-04-22T10:08:07.708Z,100652.69
2023-04-22T10:10:35.477Z,100640.09
2023-04-22T10:13:06.364Z,100636.59
2023-04-22T10:15:39.631Z,100634.88
2023-04-22T10:18:10.764Z,100624.00
2023-04-22T10:20:39.268Z,100618.78
2023-04-22T10:23:12.010Z,100618.63
2023-04-22T10:25:40.454Z,100615.94
2023-04-22T10:28:09.512Z,100614.16
2023-04-22T10:30:37.829Z,100607.06
2023-04-22T10:33:31.344Z,100607.78
2023-04-22T10:36:14.398Z,100606.94
2023-04-22T10:38:54.600Z,100606.09
2023-04-22T10:41:31.939Z,100609.75
2023-04-22T10:44:00.941Z,100606.09
2023-04-22T10:46:34.771Z,100596.22
2023-04-22T10:49:09.590Z,100601.56
2023-04-22T10:51:44.264Z,100607.78
2023-04-22T10:54:29.335Z,100606.94
2023-04-22T10:57:05.042Z,100603.41
2023-04-22T10:59:35.709Z,100597.91
2023-04-22T11:02:04.249Z,100589.84
2023-04-22T11:04:31.488Z,100585.31
2023-04-22T11:07:20.723Z,100578.28
2023-04-22T11:09:50.821Z,100572.91
2023-04-22T11:12:43.129Z,100560.31
2023-04-22T11:15:19.808Z,100566.53
2023-04-22T11:17:49.875Z,100567.38
2023-04-22T11:20:17.510Z,100568.25
2023-04-22T11:22:45.659Z,100573.75
2023-04-22T11:25:12.946Z,100576.31
2023-04-22T11:27:43.314Z,100573.63
2023-04-22T11:30:15.330Z,100579.84
2023-04-22T11:32:44.410Z,100576.16
2023-04-22T11:35:13.128Z,100567.25
2023-04-22T11:37:45.272Z,100557.38
2023-04-22T11:40:29.905Z,100562.63
2023-04-22T11:43:00.638Z,100557.38
2023-04-22T11:45:30.089Z,100556.53
2023-04-22T11:47:58.622Z,100560.06
2023-04-22T11:50:36.476Z,100556.38
2023-04-22T11:53:15.176Z,100553.84
2023-04-22T11:55:43.194Z,100535.78
2023-04-22T11:58:12.313Z,100546.50
2023-04-22T12:00:46.286Z,100537.59
2023-04-22T12:03:16.061Z,100540.16
2023-04-22T12:05:45.786Z,100537.47
2023-04-22T12:08:15.347Z,100537.47
2023-04-22T12:10:46.907Z,100546.25
2023-04-22T12:13:25.633Z,100542.69
2023-04-22T12:16:09.712Z,100537.19
2023-04-22T12:18:40.808Z,100534.50
2023-04-22T12:21:12.778Z,100533.66
2023-04-22T12:24:07.000Z,100536.47
2023-04-22T12:26:34.230Z,100541.72
2023-04-22T12:29:03.578Z,100539.88
2023-04-22T12:31:31.024Z,100538.88
2023-04-22T12:33:58.387Z,100529.16
2023-04-22T12:36:26.151Z,100533.66
2023-04-22T12:38:53.685Z,100527.16
2023-04-22T12:41:20.904Z,100529.84
2023-04-22T12:43:48.076Z,100523.63
2023-04-22T12:46:15.462Z,100528.03
2023-04-22T12:48:42.837Z,100514.59
2023-04-22T12:51:12.861Z,100518.25
2023-04-22T12:53:40.041Z,100514.44
2023-04-22T12:56:07.261Z,100510.09
2023-04-22T12:58:34.453Z,100495.66
2023-04-22T13:01:01.607Z,100511.66
2023-04-22T13:03:29.044Z,100502.72
2023-04-22T13:05:56.440Z,100493.69
2023-04-22T13:08:23.692Z,100489.28
2023-04-22T13:10:51.126Z,100498.06
2023-04-22T13:13:19.532Z,100491.00
2023-04-22T13:15:53.892Z,100486.63
2023-04-22T13:18:22.145Z,100490.03
2023-04-22T13:20:52.066Z,100480.97
2023-04-22T13:23:21.677Z,100478.28
2023-04-22T13:25:49.687Z,100475.59
2023-04-22T13:28:16.874Z,100475.59
2023-04-22T13:30:44.046Z,100471.97
2023-04-22T13:33:11.233Z,100456.72
2023-04-22T13:35:38.496Z,100466.63
2023-04-22T13:38:06.296Z,100457.56
2023-04-22T13:40:33.511Z,100453.88
2023-04-22T13:43:00.694Z,100449.34
2023-04-22T13:45:27.941Z,100441.31
2023-04-22T13:47:55.438Z,100441.19
2023-04-22T13:50:23.452Z,100435.81
2023-04-22T13:52:50.648Z,100442.88
2023-04-22T13:55:18.098Z,100433.84
2023-04-22T13:57:45.681Z,100431.16
2023-04-22T14:00:13.308Z,100425.78
2023-04-22T14:02:40.793Z,100430.16
2023-04-22T14:05:09.871Z,100424.78
2023-04-22T14:07:37.003Z,100410.25
2023-04-22T14:10:05.595Z,100413.91
2023-04-22T14:12:32.796Z,100400.47
2023-04-22T14:14:59.971Z,100397.66
2023-04-22T14:17:27.827Z,100396.81
2023-04-22T14:19:55.118Z,100398.50
2023-04-22T14:22:22.268Z,100402.88
2023-04-22T14:24:49.504Z,100397.38
2023-04-22T14:27:16.707Z,100399.06
2023-04-22T14:29:45.639Z,100387.31
2023-04-22T14:32:12.945Z,100393.69
2023-04-22T14:34:40.220Z,100391.00
2023-04-22T14:37:07.406Z,100390.72
2023-04-22T14:39:34.613Z,100388.88
2023-04-22T14:42:05.051Z,100381.81
2023-04-22T14:44:32.320Z,100378.97
2023-04-22T14:46:59.476Z,100375.34
2023-04-22T14:49:26.692Z,100373.63
2023-04-22T14:51:53.946Z,100373.50
2023-04-22T14:54:21.136Z,100369.97
2023-04-22T14:56:48.419Z,100368.97
2023-04-22T14:59:15.800Z,100368.97
2023-04-22T15:01:43.237Z,100365.28
2023-04-22T15:04:13.508Z,100367.00
2023-04-22T15:06:41.299Z,100365.16
2023-04-22T15:09:09.375Z,100357.94
2023-04-22T15:11:36.555Z,100361.47
2023-04-22T15:14:03.975Z,100351.56
2023-04-22T15:16:31.342Z,100353.28
2023-04-22T15:18:58.797Z,100348.75
2023-04-22T15:21:26.584Z,100349.59
2023-04-22T15:23:53.811Z,100345.91
2023-04-22T15:26:23.604Z,100342.25
2023-04-22T15:28:51.285Z,100341.25
2023-04-22T15:31:23.254Z,100330.50
2023-04-22T15:33:50.518Z,100335.88
2023-04-22T15:36:20.965Z,100326.81
2023-04-22T15:38:48.217Z,100325.84
2023-04-22T15:41:15.771Z,100324.00
2023-04-22T15:43:42.917Z,100324.00
2023-04-22T15:46:10.123Z,100330.22
2023-04-22T15:48:37.338Z,100323.84
2023-04-22T15:51:04.602Z,100324.69
2023-04-22T15:53:31.795Z,100325.69
2023-04-22T15:55:58.981Z,100318.47
2023-04-22T15:58:26.784Z,100322.00
2023-04-22T16:00:55.107Z,100320.19
2023-04-22T16:03:22.434Z,100319.19
2023-04-22T16:05:49.735Z,100311.13
2023-04-22T16:08:17.166Z,100304.75
2023-04-22T16:10:44.357Z,100302.91
2023-04-22T16:13:11.638Z,100300.22
2023-04-22T16:15:38.835Z,100301.06
2023-04-22T16:18:06.411Z,100300.09
2023-04-22T16:20:34.360Z,100305.47
2023-04-22T16:23:01.505Z,100296.41
2023-04-22T16:25:29.485Z,100300.09
2023-04-22T16:27:56.772Z,100294.72
2023-04-22T16:30:24.162Z,100290.19
2023-04-22T16:32:51.424Z,100290.19
2023-04-22T16:35:18.744Z,100288.34
2023-04-22T16:37:47.048Z,100290.19
2023-04-22T16:40:14.317Z,100292.88
2023-04-22T16:42:41.474Z,100291.03
2023-04-22T16:45:08.856Z,100286.66
2023-04-22T16:47:36.178Z,100284.81
2023-04-22T16:50:03.729Z,100283.13
2023-04-22T16:52:31.119Z,100286.66
2023-04-22T16:54:58.516Z,100283.13
2023-04-22T16:57:25.895Z,100278.59
2023-04-22T16:59:53.063Z,100279.44
2023-04-22T17:02:20.373Z,100273.25
2023-04-22T17:04:47.643Z,100268.84
2023-04-22T17:07:14.868Z,100276.75
2023-04-22T17:09:42.595Z,100274.91
2023-04-22T17:12:09.971Z,100267.88
2023-04-22T17:14:37.136Z,100268.84
2023-04-22T17:17:04.292Z,100275.22
2023-04-22T17:19:31.518Z,100274.22
2023-04-22T17:21:58.936Z,100275.91
2023-04-22T17:24:26.118Z,100272.53
2023-04-22T17:26:53.296Z,100272.53
2023-04-22T17:29:21.723Z,100275.22
2023-04-22T17:31:49.303Z,100273.53
2023-04-22T17:34:17.052Z,100270.13
2023-04-22T17:36:44.352Z,100272.69
2023-04-22T17:39:11.802Z,100270.13
2023-04-22T17:41:39.041Z,100275.50
2023-04-22T17:44:08.766Z,100275.50
2023-04-22T17:46:36.144Z,100271.13
2023-04-22T17:49:03.407Z,100273.94
2023-04-22T17:51:31.445Z,100272.97
2023-04-22T17:53:58.661Z,100278.34
2023-04-22T17:56:26.082Z,100271.25
2023-04-22T17:58:53.290Z,100274.94
2023-04-22T18:01:20.589Z,100271.41
2023-04-22T18:03:48.124Z,100283.00
2023-04-22T18:06:15.511Z,100274.09
2023-04-22T18:08:42.713Z,100271.56
2023-04-22T18:11:09.929Z,100278.63
2023-04-22T18:13:37.165Z,100280.47
2023-04-22T18:16:04.388Z,100281.31
2023-04-22T18:18:31.723Z,100271.56
2023-04-22T18:20:59.009Z,100279.78
2023-04-22T18:23:26.168Z,100280.78
2023-04-22T18:25:54.368Z,100279.94
2023-04-22T18:28:21.544Z,100281.75
2023-04-22T18:30:48.824Z,100280.91
2023-04-22T18:33:16.428Z,100285.31
2023-04-22T18:35:43.657Z,100285.31
2023-04-22T18:38:10.814Z,100288.00
2023-04-22T18:40:38.006Z,100288.13
2023-04-22T18:43:05.196Z,100288.81
2023-04-22T18:45:32.375Z,100287.13
2023-04-22T18:47:59.661Z,100290.81
2023-04-22T18:50:26.864Z,100282.75
2023-04-22T18:52:54.054Z,100296.16
2023-04-22T18:55:21.316Z,100288.13
2023-04-22T18:57:48.490Z,100289.13
2023-04-22T19:00:16.362Z,100289.13
2023-04-22T19:02:45.693Z,100289.13
2023-04-22T19:05:14.449Z,100285.59
2023-04-22T19:07:44.436Z,100282.91
2023-04-22T19:10:12.515Z,100281.06
2023-04-22T19:12:39.768Z,100276.66
2023-04-22T19:15:07.451Z,100276.66
2023-04-22T19:17:34.995Z,100271.28
2023-04-22T19:20:02.360Z,100273.97
2023-04-22T19:22:29.622Z,100280.34
2023-04-22T19:24:58.573Z,100278.66
2023-04-22T19:27:25.756Z,100276.81
2023-04-22T19:29:53.474Z,100278.66
2023-04-22T19:32:21.282Z,100275.97
2023-04-22T19:34:49.764Z,100281.34
2023-04-22T19:37:17.224Z,100282.31
2023-04-22T19:39:45.592Z,100273.28
2023-04-22T19:42:12.822Z,100273.28
2023-04-22T19:44:42.882Z,100264.41
2023-04-22T19:47:10.119Z,100260.84
2023-04-22T19:49:38.976Z,100260.00
2023-04-22T19:52:08.997Z,100255.47
2023-04-22T19:54:36.700Z,100262.69
2023-04-22T19:57:06.512Z,100259.16
2023-04-22T19:59:34.410Z,100259.16
2023-04-22T20:02:01.768Z,100253.78
2023-04-22T20:04:29.314Z,100264.53
2023-04-22T20:06:57.729Z,100253.78
2023-04-22T20:09:26.548Z,100243.03
2023-04-22T20:11:53.866Z,100249.41
2023-04-22T20:14:22.468Z,100245.72
2023-04-22T20:16:50.014Z,100242.19
2023-04-22T20:19:17.905Z,100240.53
2023-04-22T20:21:46.027Z,100236.97
2023-04-22T20:24:19.611Z,100237.84
2023-04-22T20:26:47.974Z,100230.63
2023-04-22T20:29:18.390Z,100229.78
2023-04-22T20:31:46.713Z,100223.53
2023-04-22T20:34:13.999Z,100225.25
2023-04-22T20:36:41.254Z,100223.53
2023-04-22T20:39:09.006Z,100224.53
2023-04-22T20:41:39.559Z,100227.22
2023-04-22T20:44:06.944Z,100227.22
2023-04-22T20:46:34.569Z,100221.84
2023-04-22T20:49:01.795Z,100227.22
2023-04-22T20:51:29.294Z,100221.00
2023-04-22T20:53:57.390Z,100217.50
2023-04-22T20:56:25.368Z,100220.19
2023-04-22T20:58:52.584Z,100219.34
2023-04-22T21:01:19.964Z,100211.28
2023-04-22T21:03:55.343Z,100205.91
2023-04-22T21:06:23.086Z,100211.41
2023-04-22T21:08:50.886Z,100212.25
2023-04-22T21:11:18.608Z,100217.63
2023-04-22T21:13:46.495Z,100206.03
2023-04-22T21:16:14.571Z,100201.66
2023-04-22T21:18:44.736Z,100203.34
2023-04-22T21:21:12.416Z,100203.34
2023-04-22T21:23:41.803Z,100204.34
2023-04-22T21:26:10.009Z,100200.00
2023-04-22T21:28:39.033Z,100195.59
2023-04-22T21:31:07.567Z,100192.91
2023-04-22T21:33:34.790Z,100183.88
2023-04-22T21:36:02.105Z,100190.22
2023-04-22T21:38:30.045Z,100191.06
2023-04-22T21:40:57.243Z,100184.00
2023-04-22T21:43:24.406Z,100190.22
2023-04-22T21:45:51.635Z,100179.47
2023-04-22T21:48:18.860Z,100177.81
2023-04-22T21:50:46.084Z,100187.53
2023-04-22T21:53:13.446Z,100180.47
2023-04-22T21:55:40.862Z,100179.66
2023-04-22T21:58:08.070Z,100186.84
2023-04-22T22:00:35.238Z,100179.66
2023-04-22T22:03:02.524Z,100182.31
2023-04-22T22:05:30.052Z,100179.66
2023-04-22T22:07:57.286Z,100177.25
2023-04-22T22:10:24.690Z,100183.47
2023-04-22T22:12:51.984Z,100180.91
2023-04-22T22:15:19.212Z,100180.78
2023-04-22T22:17:46.618Z,100185.16
2023-04-22T22:20:20.390Z,100180.78
2023-04-22T22:22:48.136Z,100181.78
2023-04-22T22:25:16.594Z,100191.66
2023-04-22T22:27:48.846Z,100188.28
2023-04-22T22:30:17.062Z,100189.13
2023-04-22T22:32:44.366Z,100184.59
2023-04-22T22:35:11.795Z,100189.13
2023-04-22T22:37:38.994Z,100183.75
2023-04-22T22:40:06.622Z,100188.28
2023-04-22T22:42:33.804Z,100192.81
2023-04-22T22:45:01.118Z,100188.38
2023-04-22T22:47:28.378Z,100190.22
2023-04-22T22:49:55.638Z,100190.38
2023-04-22T22:52:23.030Z,100187.81
2023-04-22T22:54:50.391Z,100174.28
2023-04-22T22:57:17.548Z,100181.31
2023-04-22T22:59:44.767Z,100175.25
2023-04-22T23:02:14.250Z,100172.56
2023-04-22T23:04:41.783Z,100164.50
2023-04-22T23:07:09.138Z,100161.16
2023-04-22T23:09:36.318Z,100161.16
2023-04-22T23:12:03.532Z,100169.31
2023-04-22T23:14:30.756Z,100170.16
2023-04-22T23:16:58.087Z,100164.97
2023-04-22T23:19:26.510Z,100170.16
2023-04-22T23:21:56.298Z,100163.97
2023-04-22T23:24:23.645Z,100169.31
2023-04-22T23:26:51.047Z,100161.56
2023-04-22T23:29:19.472Z,100168.78
2023-04-22T23:31:47.604Z,100164.25
2023-04-22T23:34:15.789Z,100156.19
2023-04-22T23:36:43.541Z,100162.44
2023-04-22T23:39:10.761Z,100158.03
2023-04-22T23:41:37.925Z,100158.03
2023-04-22T23:44:05.290Z,100154.81
2023-04-22T23:46:32.485Z,100157.38
2023-04-22T23:49:01.465Z,100165.41
2023-04-22T23:51:29.760Z,100160.34
2023-04-22T23:53:56.944Z,100156.66
2023-04-22T23:56:24.331Z,100152.28
2023-04-22T23:58:51.676Z,100144.91
